Time;durP1;ratioP1;P1;durP2;ratioP2;P2;SDS_P1;SDS_P2;PMS_P1;PMS_P2;Temp;Humidity;BMP_temperature;BMP_pressure;BME280_temperature;BME280_humidity;BME280_pressure;Samples;Min_cycle;Max_cycle;Signal;HPM_P1;HPM_P2
2022/11/10 00:00:08;;;;;;;47.40;23.35;;;;;;;7.77;73.50;94567.13;5064977;28;20023;-77
2022/11/10 00:02:34;;;;;;;43.38;23.58;;;;;;;7.75;73.38;94568.50;5064809;28;20025;-77
2022/11/10 00:04:59;;;;;;;47.75;23.60;;;;;;;7.75;73.44;94569.28;5064882;28;20021;-77
2022/11/10 00:07:26;;;;;;;44.85;22.13;;;;;;;7.75;73.28;94566.63;5065130;28;20033;-77
2022/11/10 00:09:54;;;;;;;46.30;24.67;;;;;;;7.72;73.26;94572.50;5064798;28;20118;-77
2022/11/10 00:12:20;;;;;;;49.67;24.92;;;;;;;7.71;73.39;94573.56;5064726;28;20029;-77
2022/11/10 00:17:30;;;;;;;48.35;24.45;;;;;;;7.69;73.06;94570.38;5064851;28;20028;-76
2022/11/10 00:19:56;;;;;;;57.60;27.88;;;;;;;7.68;73.68;94566.16;5064533;28;20214;-76
2022/11/10 00:22:22;;;;;;;54.40;26.30;;;;;;;7.66;74.20;94568.28;5064605;28;20027;-76
2022/11/10 00:24:47;;;;;;;48.03;26.13;;;;;;;7.64;74.73;94575.75;5064647;28;20062;-76
2022/11/10 00:27:13;;;;;;;51.40;26.52;;;;;;;7.63;74.70;94574.13;5064549;28;20055;-76
2022/11/10 00:29:40;;;;;;;42.67;23.27;;;;;;;7.61;74.73;94576.28;5064370;28;20012;-76
2022/11/10 00:32:05;;;;;;;52.85;25.48;;;;;;;7.60;75.83;94566.75;5064342;28;20020;-76
2022/11/10 00:34:30;;;;;;;45.22;24.05;;;;;;;7.57;75.12;94575.25;5064464;28;20027;-77
2022/11/10 00:36:56;;;;;;;44.92;25.13;;;;;;;7.55;75.28;94566.78;5064367;28;20021;-76
2022/11/10 00:39:21;;;;;;;49.40;25.73;;;;;;;7.54;75.72;94568.63;5064263;28;20021;-76
2022/11/10 00:41:47;;;;;;;52.35;26.67;;;;;;;7.57;76.18;94561.97;5064486;28;20192;-76
2022/11/10 00:44:12;;;;;;;43.70;25.63;;;;;;;7.55;76.46;94558.81;5064195;28;20020;-76
2022/11/10 00:46:38;;;;;;;44.33;24.38;;;;;;;7.56;76.12;94555.88;5064282;28;20016;-76
2022/11/10 00:49:03;;;;;;;45.33;23.48;;;;;;;7.54;75.43;94546.63;5064059;28;20329;-76
2022/11/10 00:51:29;;;;;;;50.70;25.10;;;;;;;7.56;75.31;94547.16;5063969;28;20349;-76
2022/11/10 00:53:55;;;;;;;49.00;25.23;;;;;;;7.55;74.83;94549.00;5063899;28;20342;-76
2022/11/10 00:56:21;;;;;;;49.55;24.10;;;;;;;7.55;74.59;94549.00;5064064;28;20028;-77
2022/11/10 00:58:47;;;;;;;41.65;23.50;;;;;;;7.53;74.33;94545.03;5063782;28;20059;-77
2022/11/10 01:01:13;;;;;;;42.40;23.13;;;;;;;7.49;73.95;94549.31;5063643;28;20021;-77
2022/11/10 01:03:40;;;;;;;47.20;24.30;;;;;;;7.45;73.47;94549.09;5063722;28;20033;-77
2022/11/10 01:06:07;;;;;;;50.35;23.05;;;;;;;7.36;73.63;94546.22;5063626;28;20200;-77
2022/11/10 01:08:33;;;;;;;40.40;21.48;;;;;;;7.37;73.73;94547.03;5063652;28;20040;-77
2022/11/10 01:11:04;;;;;;;48.35;21.23;;;;;;;7.34;73.53;94543.03;5063661;28;20032;-77
2022/11/10 01:13:30;;;;;;;41.13;21.90;;;;;;;7.33;73.90;94546.00;5063615;28;20024;-77
2022/11/10 01:15:55;;;;;;;43.42;22.02;;;;;;;7.29;74.15;94550.25;5063636;28;20325;-77
2022/11/10 01:18:21;;;;;;;44.35;22.10;;;;;;;7.25;74.09;94544.72;5063594;28;20219;-77
2022/11/10 01:20:50;;;;;;;40.88;22.20;;;;;;;7.23;74.23;94541.53;5063522;28;20362;-77
2022/11/10 01:23:16;;;;;;;40.40;21.80;;;;;;;7.24;73.91;94548.41;5063374;28;20029;-77
2022/11/10 01:25:41;;;;;;;44.30;23.05;;;;;;;7.21;73.74;94538.38;5063299;28;20099;-77
2022/11/10 01:28:07;;;;;;;39.65;22.10;;;;;;;7.20;73.91;94544.72;5063261;28;20353;-77
2022/11/10 01:30:32;;;;;;;46.40;23.83;;;;;;;7.20;74.17;94542.06;5063430;28;20029;-77
2022/11/10 01:32:58;;;;;;;45.53;23.30;;;;;;;7.16;74.43;94539.16;5063203;28;20070;-77
2022/11/10 01:35:23;;;;;;;42.63;21.45;;;;;;;7.12;74.27;94540.78;5062982;28;20032;-78
2022/11/10 01:37:51;;;;;;;51.20;23.30;;;;;;;7.12;74.37;94538.13;5063303;28;20241;-77
2022/11/10 01:40:17;;;;;;;45.13;22.95;;;;;;;7.09;74.59;94535.25;5062077;28;20021;-77
2022/11/10 01:42:52;;;;;;;43.03;22.08;;;;;;;7.05;74.75;94531.56;5062985;28;20035;-77
2022/11/10 01:45:23;;;;;;;45.10;23.20;;;;;;;7.05;74.42;94535.00;5062131;28;20059;-77
2022/11/10 01:48:09;;;;;;;44.33;22.57;;;;;;;7.02;74.25;94531.06;5063174;28;20211;-77
2022/11/10 01:50:38;;;;;;;43.97;22.88;;;;;;;7.01;73.96;94541.94;5062919;28;20063;-78
2022/11/10 01:53:09;;;;;;;50.72;25.00;;;;;;;6.95;74.27;94541.16;5062901;28;20322;-77
2022/11/10 01:55:38;;;;;;;44.40;23.55;;;;;;;6.92;75.09;94543.56;5063012;28;20307;-77
2022/11/10 01:58:04;;;;;;;45.75;25.38;;;;;;;6.88;75.42;94539.84;5062732;28;20041;-77
2022/11/10 02:00:30;;;;;;;53.22;28.50;;;;;;;6.86;75.91;94545.44;5061534;28;20025;-77
2022/11/10 02:03:17;;;;;;;59.97;30.13;;;;;;;6.87;76.63;94536.44;5062819;28;20278;-77
2022/11/10 02:05:43;;;;;;;56.90;27.42;;;;;;;6.83;77.01;94533.53;5062777;28;20020;-77
2022/11/10 02:08:11;;;;;;;46.60;24.73;;;;;;;6.86;76.82;94539.34;5062580;28;20051;-77
2022/11/10 02:10:37;;;;;;;51.13;24.88;;;;;;;6.84;76.46;94536.97;5062811;28;20070;-77
2022/11/10 02:13:03;;;;;;;47.45;26.52;;;;;;;6.81;76.47;94540.16;5062253;28;20290;-77
2022/11/10 02:15:28;;;;;;;55.17;27.60;;;;;;;6.79;76.42;94531.69;5062624;28;20021;-78
2022/11/10 02:17:54;;;;;;;53.47;27.38;;;;;;;6.80;76.46;94534.06;5062627;28;20282;-77
2022/11/10 02:20:20;;;;;;;57.92;28.23;;;;;;;6.82;76.62;94541.75;5062857;28;20071;-77
2022/11/10 02:22:45;;;;;;;53.38;26.38;;;;;;;6.82;76.65;94547.06;5062539;28;20027;-77
2022/11/10 02:25:18;;;;;;;47.25;25.10;;;;;;;6.82;76.97;94537.25;5062484;28;20020;-78
2022/11/10 02:27:44;;;;;;;47.72;25.13;;;;;;;6.84;77.05;94550.22;5062522;28;20063;-77
2022/11/10 02:30:10;;;;;;;44.70;24.27;;;;;;;6.85;77.06;94554.44;5062567;28;20028;-77
2022/11/10 02:32:35;;;;;;;45.35;24.70;;;;;;;6.85;76.84;94551.81;5062553;28;20036;-77
2022/11/10 02:35:01;;;;;;;42.97;22.88;;;;;;;6.86;77.09;94558.69;5062591;28;20275;-77
2022/11/10 02:37:26;;;;;;;44.70;23.95;;;;;;;6.88;77.19;94556.56;5062426;28;20342;-77
2022/11/10 02:39:52;;;;;;;43.88;23.73;;;;;;;6.87;76.71;94556.84;5062258;28;20021;-77
2022/11/10 02:42:17;;;;;;;42.97;23.50;;;;;;;6.88;76.33;94561.88;5062648;28;20092;-77
2022/11/10 02:44:43;;;;;;;46.58;25.25;;;;;;;6.88;76.77;94567.16;5062496;28;20036;-78
2022/11/10 02:47:08;;;;;;;49.53;24.13;;;;;;;6.87;77.45;94559.50;5062533;28;20029;-78
2022/11/10 02:49:34;;;;;;;47.80;24.15;;;;;;;6.86;77.41;94561.34;5062322;28;20029;-77
2022/11/10 02:51:59;;;;;;;50.25;24.80;;;;;;;6.88;77.69;94566.34;5062260;28;20024;-77
2022/11/10 02:54:24;;;;;;;49.58;24.25;;;;;;;6.90;77.82;94559.75;5062218;28;20215;-78
2022/11/10 02:56:50;;;;;;;44.40;23.42;;;;;;;6.91;77.74;94563.97;5062360;28;20030;-78
2022/11/10 02:59:16;;;;;;;44.33;21.58;;;;;;;6.90;77.18;94558.94;5062182;28;20025;-78
2022/11/10 03:01:41;;;;;;;48.10;24.15;;;;;;;6.86;76.62;94569.31;5062161;28;20021;-78
2022/11/10 03:04:07;;;;;;;46.63;24.25;;;;;;;6.82;76.80;94562.97;5062242;28;20383;-78
2022/11/10 03:06:32;;;;;;;57.50;26.42;;;;;;;6.78;77.38;94565.34;5062370;28;20048;-78
2022/11/10 03:08:58;;;;;;;44.78;23.85;;;;;;;6.80;77.92;94565.09;5061951;28;20204;-78
2022/11/10 03:11:26;;;;;;;49.33;22.88;;;;;;;6.76;78.04;94562.19;5062210;28;20032;-78
2022/11/10 03:13:51;;;;;;;41.13;21.83;;;;;;;6.74;77.94;94566.19;5062101;28;20028;-78
2022/11/10 03:16:17;;;;;;;48.85;24.40;;;;;;;6.74;78.25;94564.31;5062374;28;20226;-78
2022/11/10 03:18:42;;;;;;;46.85;23.52;;;;;;;6.72;78.55;94566.44;5062180;28;20021;-78
2022/11/10 03:21:08;;;;;;;45.92;23.15;;;;;;;6.73;78.48;94572.53;5062048;28;20053;-78
2022/11/10 03:23:34;;;;;;;43.78;21.77;;;;;;;6.70;78.21;94565.91;5062037;28;20354;-78
2022/11/10 03:26:03;;;;;;;50.38;23.13;;;;;;;6.69;77.88;94569.63;5065150;28;20025;-78
2022/11/10 03:28:29;;;;;;;40.92;20.98;;;;;;;6.71;77.42;94575.44;5065613;28;20274;-78
2022/11/10 03:30:54;;;;;;;48.17;22.92;;;;;;;6.70;77.27;94578.38;5064503;28;20036;-78
2022/11/10 03:33:20;;;;;;;47.38;20.90;;;;;;;6.69;76.98;94572.25;5065582;28;20039;-78
2022/11/10 03:35:46;;;;;;;42.80;22.30;;;;;;;6.69;76.60;94574.13;5065400;28;20028;-78
2022/11/10 03:38:11;;;;;;;42.03;21.83;;;;;;;6.67;76.10;94570.97;5065531;28;20099;-78
2022/11/10 03:40:37;;;;;;;39.63;21.02;;;;;;;6.67;75.76;94565.66;5065356;28;20013;-78
2022/11/10 03:43:02;;;;;;;39.22;19.63;;;;;;;6.69;75.29;94566.97;5065264;28;20025;-78
2022/11/10 03:45:28;;;;;;;39.72;20.40;;;;;;;6.69;75.33;94579.44;5065267;28;20017;-78
2022/11/10 03:47:53;;;;;;;43.60;21.48;;;;;;;6.69;75.48;94576.78;5065230;28;20058;-77
2022/11/10 03:50:19;;;;;;;39.00;20.55;;;;;;;6.69;75.39;94574.91;5065265;28;20039;-77
2022/11/10 03:52:45;;;;;;;38.60;20.48;;;;;;;6.59;75.21;94585.53;5065120;28;20032;-77
2022/11/10 03:55:14;;;;;;;37.38;17.75;;;;;;;6.54;75.32;94591.66;5065156;28;20262;-78
2022/11/10 03:57:40;;;;;;;39.78;19.65;;;;;;;6.54;74.76;94570.47;5064778;28;20045;-78
2022/11/10 04:00:06;;;;;;;40.65;20.73;;;;;;;6.53;74.95;94586.63;5065170;28;20017;-77
2022/11/10 04:02:32;;;;;;;32.20;18.40;;;;;;;6.52;74.82;94587.69;5065129;28;20021;-78
2022/11/10 04:10:25;;;;;;;38.00;19.25;;;;;;;6.51;74.98;94591.41;5064901;28;20222;-78
2022/11/10 04:15:43;;;;;;;36.10;19.60;;;;;;;6.48;75.00;94586.66;5064767;28;20337;-77
2022/11/10 04:18:20;;;;;;;40.00;19.75;;;;;;;6.48;75.03;94584.78;5064793;28;20192;-77
2022/11/10 04:20:46;;;;;;;34.55;19.00;;;;;;;6.47;74.69;94593.78;5064593;28;20036;-77
2022/11/10 04:23:33;;;;;;;35.22;18.95;;;;;;;6.46;74.85;94592.22;5064607;28;20032;-77
2022/11/10 04:28:51;;;;;;;31.65;18.55;;;;;;;6.42;74.76;94591.94;5064602;28;20031;-78
2022/11/10 04:31:18;;;;;;;34.80;18.33;;;;;;;6.41;74.69;94600.16;5064540;28;20048;-78
2022/11/10 04:33:44;;;;;;;33.83;18.88;;;;;;;6.36;74.65;94595.66;5064291;28;20020;-78
2022/11/10 04:36:13;;;;;;;33.47;18.27;;;;;;;6.38;74.52;94598.06;5063953;28;20059;-78
2022/11/10 04:38:39;;;;;;;30.10;17.38;;;;;;;6.37;74.55;94593.81;5064212;28;20315;-78
2022/11/10 04:41:05;;;;;;;30.65;17.25;;;;;;;6.37;74.49;94601.75;5064345;28;20135;-78
2022/11/10 04:43:31;;;;;;;32.13;17.52;;;;;;;6.31;74.50;94595.69;5064043;28;20021;-78
2022/11/10 04:45:57;;;;;;;37.28;19.25;;;;;;;6.32;74.69;94593.81;5064148;28;20087;-78
2022/11/10 04:48:23;;;;;;;30.70;17.27;;;;;;;6.31;74.59;94598.34;5064108;28;20021;-78
2022/11/10 04:50:49;;;;;;;32.95;17.30;;;;;;;6.29;74.37;94600.47;5064309;28;20338;-78
2022/11/10 04:53:14;;;;;;;31.35;17.15;;;;;;;6.26;74.67;94590.38;5063827;28;20039;-78
2022/11/10 04:55:42;;;;;;;45.00;19.55;;;;;;;6.26;74.96;94605.50;5064000;28;20029;-77
2022/11/10 04:58:07;;;;;;;39.72;18.67;;;;;;;6.25;74.95;94595.94;5063804;28;20338;-77
2022/11/10 05:00:33;;;;;;;37.10;19.25;;;;;;;6.20;75.01;94600.19;5063828;28;20031;-77
2022/11/10 05:03:00;;;;;;;32.88;18.77;;;;;;;6.16;75.20;94599.13;5063889;28;20032;-77
2022/11/10 05:05:25;;;;;;;36.88;20.98;;;;;;;6.15;75.34;94607.38;5063779;28;20029;-78
2022/11/10 05:07:51;;;;;;;37.28;20.38;;;;;;;6.17;75.15;94600.72;5063800;28;20086;-78
2022/11/10 05:10:16;;;;;;;37.55;19.80;;;;;;;6.18;75.49;94607.59;5063903;28;20025;-78
2022/11/10 05:12:42;;;;;;;46.28;21.77;;;;;;;6.15;75.87;94605.50;5063660;28;20079;-78
2022/11/10 05:15:08;;;;;;;47.92;24.35;;;;;;;6.20;76.64;94610.78;5063535;28;20057;-77
2022/11/10 05:17:34;;;;;;;47.67;23.75;;;;;;;6.21;76.42;94617.66;5063531;28;20345;-77
2022/11/10 05:19:59;;;;;;;58.42;25.15;;;;;;;6.19;77.27;94619.78;5063537;28;20029;-77
2022/11/10 05:22:24;;;;;;;42.72;21.40;;;;;;;6.20;77.19;94608.13;5063565;28;20358;-77
2022/11/10 05:24:50;;;;;;;45.42;23.15;;;;;;;6.19;77.11;94611.06;5063500;28;20322;-78
2022/11/10 05:27:16;;;;;;;39.15;19.95;;;;;;;6.21;76.54;94608.94;5063255;28;20044;-78
2022/11/10 05:29:41;;;;;;;36.10;20.15;;;;;;;6.23;75.96;94620.06;5063028;28;20282;-77
2022/11/10 05:32:07;;;;;;;36.60;17.58;;;;;;;6.22;75.56;94610.50;5063347;28;20048;-77
2022/11/10 05:34:32;;;;;;;36.25;18.52;;;;;;;6.21;75.13;94612.38;5063113;28;20319;-77
2022/11/10 05:36:57;;;;;;;39.25;17.33;;;;;;;6.21;75.02;94612.38;5063073;28;20104;-77
2022/11/10 05:39:23;;;;;;;35.85;18.67;;;;;;;6.21;74.99;94609.72;5063216;28;20362;-78
2022/11/10 05:41:48;;;;;;;39.13;19.73;;;;;;;6.21;74.80;94615.03;5063217;28;20025;-78
2022/11/10 05:44:14;;;;;;;36.38;19.17;;;;;;;6.20;75.15;94613.41;5062955;28;20040;-78
2022/11/10 05:46:39;;;;;;;38.22;19.55;;;;;;;6.26;75.19;94618.72;5062744;28;20033;-78
2022/11/10 05:49:05;;;;;;;36.88;19.13;;;;;;;6.26;75.48;94624.81;5061580;28;20107;-78
2022/11/10 05:51:30;;;;;;;35.10;17.80;;;;;;;6.32;75.43;94630.91;5062654;28;20025;-78
2022/11/10 05:53:55;;;;;;;40.55;19.83;;;;;;;6.35;75.51;94638.28;5062997;28;20056;-78
2022/11/10 05:56:21;;;;;;;32.70;19.92;;;;;;;6.42;75.27;94631.66;5062870;28;20088;-78
2022/11/10 05:58:46;;;;;;;44.13;20.45;;;;;;;6.44;75.36;94636.69;5062846;28;20267;-78
2022/11/10 06:01:12;;;;;;;34.40;18.05;;;;;;;6.50;75.24;94640.13;5062843;28;20066;-78
2022/11/10 06:03:37;;;;;;;42.50;20.48;;;;;;;6.55;75.24;94632.16;5062775;28;20218;-78
2022/11/10 06:06:03;;;;;;;45.47;21.02;;;;;;;6.60;75.07;94637.47;5062647;28;20024;-78
2022/11/10 06:08:28;;;;;;;42.40;20.50;;;;;;;6.67;75.33;94645.13;5062752;28;20262;-78
2022/11/10 06:10:54;;;;;;;43.63;19.80;;;;;;;6.73;75.41;94650.13;5061545;28;20315;-78
2022/11/10 06:13:19;;;;;;;44.55;22.10;;;;;;;6.80;75.25;94648.00;5062924;28;20056;-78
2022/11/10 06:15:45;;;;;;;44.10;22.10;;;;;;;6.86;75.30;94655.94;5062537;28;20044;-79
2022/11/10 06:18:10;;;;;;;41.15;21.50;;;;;;;6.93;75.52;94665.19;5062703;28;20380;-77
2022/11/10 06:20:35;;;;;;;46.92;24.92;;;;;;;6.98;75.75;94657.25;5062648;28;20029;-78
2022/11/10 06:23:05;;;;;;;44.97;22.55;;;;;;;7.04;76.14;94663.28;5062619;28;20075;-78
2022/11/10 06:25:33;;;;;;;59.38;26.38;;;;;;;7.12;76.47;94673.34;5062489;28;20040;-77
2022/11/10 06:27:58;;;;;;;60.60;29.63;;;;;;;7.20;76.78;94670.13;5062569;28;20334;-76
2022/11/10 06:30:25;;;;;;;64.82;28.95;;;;;;;7.23;77.41;94674.91;5062721;28;20036;-77
2022/11/10 06:32:50;;;;;;;87.72;29.48;;;;;;;7.26;77.28;94678.84;5062775;28;20029;-78
2022/11/10 06:35:16;;;;;;;59.88;30.35;;;;;;;7.26;77.48;94692.13;5062303;28;20366;-79
2022/11/10 06:37:42;;;;;;;63.05;32.20;;;;;;;7.32;77.35;94685.72;5062511;28;20323;-79
2022/11/10 06:40:09;;;;;;;58.67;28.75;;;;;;;7.32;77.29;94683.06;5062505;28;20031;-79
2022/11/10 06:42:35;;;;;;;81.88;32.05;;;;;;;7.40;77.42;94695.75;5062356;28;20021;-79
2022/11/10 06:45:00;;;;;;;71.30;30.63;;;;;;;7.41;77.61;94693.94;5062474;28;20085;-79
2022/11/10 06:47:26;;;;;;;58.83;29.67;;;;;;;7.47;77.66;94699.97;5062605;28;20017;-79
2022/11/10 06:49:52;;;;;;;66.68;32.92;;;;;;;7.44;77.83;94702.13;5062270;28;20027;-77
2022/11/10 06:52:17;;;;;;;72.90;35.03;;;;;;;7.51;77.90;94696.53;5062483;28;20092;-78
2022/11/10 06:54:43;;;;;;;75.80;36.13;;;;;;;7.57;78.04;94697.28;5062234;28;20063;-76
2022/11/10 06:57:08;;;;;;;76.57;37.13;;;;;;;7.62;77.80;94697.28;5061971;28;20067;-77
2022/11/10 06:59:33;;;;;;;73.88;36.92;;;;;;;7.68;77.65;94698.81;5064896;28;20080;-78
2022/11/10 07:01:59;;;;;;;71.93;37.08;;;;;;;7.75;77.56;94704.63;5066017;28;20025;-78
2022/11/10 07:04:24;;;;;;;90.85;39.45;;;;;;;7.77;77.42;94699.81;5065837;28;20044;-76
2022/11/10 07:06:50;;;;;;;68.85;37.70;;;;;;;7.83;77.16;94700.59;5066184;28;20021;-78
2022/11/10 07:09:16;;;;;;;74.30;37.47;;;;;;;7.89;77.34;94701.38;5065944;28;20028;-78
2022/11/10 07:11:41;;;;;;;85.38;35.53;;;;;;;7.91;77.44;94704.53;5065914;28;20079;-78
2022/11/10 07:14:07;;;;;;;71.35;37.33;;;;;;;8.00;77.55;94708.22;5065888;28;20025;-79
2022/11/10 07:16:32;;;;;;;76.07;37.78;;;;;;;8.07;77.48;94710.53;5065939;28;20215;-78
2022/11/10 07:18:57;;;;;;;78.75;35.75;;;;;;;8.14;77.02;94703.03;5065861;28;20269;-78
2022/11/10 07:21:23;;;;;;;79.53;35.00;;;;;;;8.19;76.82;94709.13;5065621;28;20021;-79
2022/11/10 07:23:48;;;;;;;74.88;34.83;;;;;;;8.27;76.78;94718.38;5065684;28;20021;-79
2022/11/10 07:26:14;;;;;;;72.68;33.03;;;;;;;8.35;76.54;94714.34;5064541;28;20013;-80
2022/11/10 07:28:41;;;;;;;84.93;32.53;;;;;;;8.43;75.56;94716.44;5065145;28;20031;-79
2022/11/10 07:31:06;;;;;;;77.28;32.30;;;;;;;8.49;75.37;94701.22;5065130;28;20218;-79
2022/11/10 07:33:31;;;;;;;75.63;34.00;;;;;;;8.55;75.47;94710.75;5065322;28;20017;-79
2022/11/10 07:35:59;;;;;;;65.80;30.40;;;;;;;8.63;74.82;94713.59;5065739;28;20017;-80
2022/11/10 07:38:24;;;;;;;63.97;30.08;;;;;;;8.64;74.85;94706.41;5065423;28;20044;-79
2022/11/10 07:40:54;;;;;;;63.45;31.90;;;;;;;8.66;74.83;94714.09;5065566;28;20028;-78
2022/11/10 07:43:20;;;;;;;63.70;30.48;;;;;;;8.70;74.55;94713.25;5065670;28;20218;-78
2022/11/10 07:45:47;;;;;;;65.85;28.80;;;;;;;8.77;73.73;94711.09;5064237;28;20032;-77
2022/11/10 07:48:13;;;;;;;56.25;28.60;;;;;;;8.80;73.56;94705.19;5065223;28;20021;-79
2022/11/10 07:50:38;;;;;;;58.45;31.00;;;;;;;8.84;73.29;94702.78;5065033;28;20048;-77
2022/11/10 07:53:08;;;;;;;60.50;31.35;;;;;;;8.84;73.78;94708.88;5065337;28;20363;-78
2022/11/10 07:55:36;;;;;;;56.78;29.92;;;;;;;8.90;73.99;94703.53;5065300;28;20028;-79
2022/11/10 07:58:02;;;;;;;52.10;27.55;;;;;;;8.94;73.45;94709.84;5064917;28;20064;-79
2022/11/10 08:00:27;;;;;;;56.05;27.80;;;;;;;9.02;73.25;94706.59;5065053;28;20017;-79
2022/11/10 08:02:53;;;;;;;66.80;29.88;;;;;;;9.06;72.60;94717.44;5065098;28;20017;-79
2022/11/10 08:05:18;;;;;;;55.05;28.17;;;;;;;9.10;72.96;94718.44;5065244;28;20052;-79
2022/11/10 08:07:44;;;;;;;56.85;30.52;;;;;;;9.08;73.01;94713.44;5064893;28;20024;-78
2022/11/10 08:10:09;;;;;;;52.90;29.17;;;;;;;9.11;73.36;94712.06;5064025;28;20029;-78
2022/11/10 08:12:35;;;;;;;60.92;29.73;;;;;;;9.17;72.56;94713.59;5064797;28;20374;-78
2022/11/10 08:15:01;;;;;;;63.38;29.55;;;;;;;9.15;72.47;94705.91;5063538;28;20025;-78
2022/11/10 08:17:26;;;;;;;64.60;30.73;;;;;;;9.20;72.41;94705.06;5064691;28;20021;-77
2022/11/10 08:19:52;;;;;;;62.38;30.38;;;;;;;9.20;72.78;94707.72;5064748;28;20314;-78
2022/11/10 08:22:17;;;;;;;60.97;30.65;;;;;;;9.35;72.18;94707.53;5064845;28;20052;-77
2022/11/10 08:24:42;;;;;;;65.95;30.80;;;;;;;9.38;71.26;94714.97;5064749;28;20017;-79
2022/11/10 08:27:08;;;;;;;67.45;30.45;;;;;;;9.40;71.42;94715.47;5064613;28;20337;-79
2022/11/10 08:29:33;;;;;;;63.90;31.08;;;;;;;9.40;71.93;94723.47;5064487;28;20017;-77
2022/11/10 08:31:59;;;;;;;63.88;31.95;;;;;;;9.39;71.88;94719.19;5064482;28;20025;-78
2022/11/10 08:34:24;;;;;;;52.92;31.23;;;;;;;9.55;71.01;94729.69;5064476;28;20021;-77
2022/11/10 08:36:52;;;;;;;61.15;31.30;;;;;;;9.51;71.03;94723.34;5064468;28;20048;-79
2022/11/10 08:39:18;;;;;;;59.55;31.83;;;;;;;9.49;71.16;94725.50;5063386;28;20234;-78
2022/11/10 08:41:43;;;;;;;63.33;34.88;;;;;;;9.52;71.21;94724.91;5064378;28;20016;-78
2022/11/10 08:44:09;;;;;;;75.70;36.33;;;;;;;9.56;71.39;94718.72;5064055;28;20092;-78
2022/11/10 08:46:34;;;;;;;65.57;34.42;;;;;;;9.71;71.34;94717.75;5064040;28;20123;-79
2022/11/10 08:49:00;;;;;;;71.57;33.95;;;;;;;9.83;71.05;94720.78;5064045;28;20025;-78
2022/11/10 08:51:25;;;;;;;70.25;34.78;;;;;;;9.95;69.76;94716.91;5064064;28;20092;-77
2022/11/10 08:53:51;;;;;;;66.85;34.75;;;;;;;9.95;69.90;94719.56;5064021;28;20021;-77
2022/11/10 08:56:16;;;;;;;65.88;32.05;;;;;;;9.96;69.92;94726.47;5064016;28;20322;-77
2022/11/10 08:58:41;;;;;;;59.42;31.65;;;;;;;10.03;68.74;94724.25;5063734;28;20044;-77
2022/11/10 09:01:08;;;;;;;73.80;35.25;;;;;;;10.04;69.19;94717.84;5063951;28;20265;-77
2022/11/10 09:03:34;;;;;;;65.07;34.25;;;;;;;10.08;69.89;94732.16;5063881;28;20047;-77
2022/11/10 09:05:59;;;;;;;69.60;34.13;;;;;;;10.24;69.68;94727.41;5063715;28;20088;-77
2022/11/10 09:08:25;;;;;;;69.53;33.65;;;;;;;10.36;69.70;94732.31;5063849;28;20025;-77
2022/11/10 09:10:50;;;;;;;69.47;33.60;;;;;;;10.48;69.38;94722.00;5063965;28;20057;-77
2022/11/10 09:13:17;;;;;;;63.75;33.55;;;;;;;10.62;67.98;94730.84;5063765;28;20127;-78
2022/11/10 09:15:43;;;;;;;57.88;28.25;;;;;;;10.74;66.56;94727.72;5063658;28;20044;-78
2022/11/10 09:18:11;;;;;;;54.28;30.42;;;;;;;10.79;66.46;94729.53;5063723;28;20204;-79
2022/11/10 09:20:37;;;;;;;60.13;29.30;;;;;;;10.82;66.38;94724.38;5063562;28;20219;-77
2022/11/10 09:23:09;;;;;;;62.67;29.45;;;;;;;10.82;66.43;94726.25;5063448;28;20044;-78
2022/11/10 09:25:34;;;;;;;53.55;27.73;;;;;;;10.87;66.28;94720.03;5063502;28;20048;-77
2022/11/10 09:28:00;;;;;;;53.85;26.35;;;;;;;10.86;66.34;94723.81;5063515;28;20052;-78
2022/11/10 09:30:26;;;;;;;52.50;28.80;;;;;;;10.90;66.00;94722.91;5063320;28;20310;-77
2022/11/10 09:32:56;;;;;;;63.95;29.10;;;;;;;10.93;66.04;94719.69;5063375;28;20025;-78
2022/11/10 09:35:22;;;;;;;58.03;30.48;;;;;;;11.00;66.40;94713.94;5063288;28;20025;-79
2022/11/10 09:37:47;;;;;;;58.88;28.80;;;;;;;11.02;66.28;94711.78;5063372;28;20374;-78
2022/11/10 09:40:22;;;;;;;62.08;30.67;;;;;;;11.20;66.33;94710.13;5063156;28;20092;-78
2022/11/10 09:42:47;;;;;;;50.72;27.25;;;;;;;11.35;66.08;94715.16;5063291;28;20020;-79
2022/11/10 09:45:24;;;;;;;55.65;30.48;;;;;;;11.53;65.39;94723.38;5062995;28;20059;-79
2022/11/10 09:48:08;;;;;;;62.15;31.23;;;;;;;11.49;65.54;94717.81;5063261;28;20092;-79
2022/11/10 09:50:36;;;;;;;55.60;30.48;;;;;;;11.33;65.79;94706.66;5062906;28;20029;-78
2022/11/10 09:53:03;;;;;;;58.10;32.03;;;;;;;11.33;66.63;94706.66;5062765;28;20029;-78
2022/11/10 09:55:58;;;;;;;59.10;29.92;;;;;;;11.42;66.52;94710.22;5062662;28;20040;-79
2022/11/10 09:58:28;;;;;;;59.67;31.77;;;;;;;11.55;66.40;94710.50;5053421;28;20068;-79
2022/11/10 10:01:29;;;;;;;66.05;34.53;;;;;;;11.63;66.09;94709.81;5062666;28;20029;-77
2022/11/10 10:04:03;;;;;;;62.10;34.83;;;;;;;11.57;66.11;94706.44;5060326;28;20036;-79
2022/11/10 10:06:39;;;;;;;72.93;34.55;;;;;;;11.68;65.88;94715.03;5062524;28;20052;-80
2022/11/10 10:09:29;;;;;;;57.72;31.05;;;;;;;11.73;64.87;94711.50;5062755;28;20096;-79
2022/11/10 10:12:03;;;;;;;52.35;29.77;;;;;;;11.65;65.05;94708.41;5062894;28;20062;-77
2022/11/10 10:14:35;;;;;;;64.05;33.20;;;;;;;11.75;65.31;94703.97;5062715;28;20061;-79
2022/11/10 10:17:10;;;;;;;62.47;29.33;;;;;;;11.81;64.27;94706.22;5062797;28;20098;-77
2022/11/10 10:19:38;;;;;;;53.20;29.15;;;;;;;11.79;64.39;94699.59;5062855;28;20100;-77
2022/11/10 10:22:17;;;;;;;51.95;29.20;;;;;;;11.87;64.54;94698.91;5062731;28;20338;-77
2022/11/10 10:24:43;;;;;;;56.70;30.65;;;;;;;11.96;63.86;94697.13;5062710;28;20028;-78
2022/11/10 10:27:20;;;;;;;52.47;32.15;;;;;;;11.97;63.84;94700.59;5062614;28;20024;-78
2022/11/10 10:29:50;;;;;;;63.13;30.67;;;;;;;12.02;64.06;94700.47;5062769;28;20036;-78
2022/11/10 10:32:17;;;;;;;61.05;29.58;;;;;;;12.07;63.72;94696.88;5062781;28;20032;-77
2022/11/10 10:34:44;;;;;;;59.10;30.90;;;;;;;12.08;63.42;94699.25;5065654;28;20021;-76
2022/11/10 10:37:25;;;;;;;68.38;32.25;;;;;;;12.09;63.57;94700.03;5066564;28;20230;-76
2022/11/10 10:39:54;;;;;;;60.00;31.70;;;;;;;12.07;63.70;94697.69;5066709;28;20017;-78
2022/11/10 10:42:36;;;;;;;59.08;31.80;;;;;;;12.13;63.81;94699.16;5066818;28;20028;-78
2022/11/10 10:45:10;;;;;;;64.35;34.00;;;;;;;12.13;63.83;94693.81;5066634;28;20307;-78
2022/11/10 10:47:39;;;;;;;64.18;32.92;;;;;;;12.27;62.91;94698.31;5065452;28;20024;-78
2022/11/10 10:50:25;;;;;;;74.40;32.95;;;;;;;12.37;63.22;94687.38;5066075;28;20033;-77
2022/11/10 10:53:17;;;;;;;62.10;32.83;;;;;;;12.43;62.90;94686.16;5066266;28;20055;-79
2022/11/10 10:55:52;;;;;;;59.33;33.33;;;;;;;12.62;62.79;94683.31;5066361;28;20017;-79
2022/11/10 10:58:27;;;;;;;61.03;32.00;;;;;;;12.70;61.99;94679.09;5066305;28;20351;-79
2022/11/10 11:00:58;;;;;;;54.70;32.47;;;;;;;12.81;61.74;94669.72;5066121;28;20047;-79
2022/11/10 11:03:36;;;;;;;63.88;32.15;;;;;;;13.00;61.87;94670.28;5066069;28;20230;-79
2022/11/10 11:06:05;;;;;;;63.40;31.85;;;;;;;13.17;60.96;94669.59;5065948;28;20029;-78
2022/11/10 11:08:31;;;;;;;58.03;31.83;;;;;;;13.23;61.11;94663.00;5066027;28;20029;-75
2022/11/10 11:11:06;;;;;;;59.80;32.28;;;;;;;13.40;60.19;94667.63;5066023;28;20028;-77
2022/11/10 11:13:32;;;;;;;52.90;29.10;;;;;;;13.56;59.00;94659.19;5065828;28;20027;-77
2022/11/10 11:16:02;;;;;;;66.72;27.20;;;;;;;13.67;58.40;94663.13;5066072;28;20280;-77
2022/11/10 11:18:31;;;;;;;50.25;27.20;;;;;;;13.71;58.36;94658.72;5065928;28;20088;-77
2022/11/10 11:21:32;;;;;;;56.47;29.58;;;;;;;13.78;58.47;94655.56;5065894;28;20032;-77
2022/11/10 11:24:27;;;;;;;48.38;28.38;;;;;;;13.93;57.92;94651.66;5065834;28;20013;-76
2022/11/10 11:27:17;;;;;;;59.33;30.38;;;;;;;14.06;57.57;94648.03;5065613;28;20025;-77
2022/11/10 11:30:12;;;;;;;49.25;29.13;;;;;;;13.99;57.00;94645.81;5065587;28;20052;-77
2022/11/10 11:32:57;;;;;;;63.03;29.58;;;;;;;14.06;57.04;94645.34;5056820;28;20033;-77
2022/11/10 11:35:34;;;;;;;57.50;30.52;;;;;;;14.25;57.80;94640.47;5065820;28;20246;-77
2022/11/10 11:38:11;;;;;;;58.72;32.15;;;;;;;14.48;56.83;94642.97;5065742;28;20032;-76
2022/11/10 11:41:00;;;;;;;61.15;31.05;;;;;;;14.69;56.43;94645.00;5065591;28;20231;-76